createdAt,value
2018-04-24T00:09:08.211Z,8
2018-04-24T00:19:07.584Z,8
2018-04-24T00:29:08.173Z,11
2018-04-24T00:39:07.681Z,7
2018-04-24T00:49:07.621Z,9
2018-04-24T00:59:07.670Z,8
2018-04-24T01:09:07.693Z,8
2018-04-24T01:19:25.141Z,8
2018-04-24T01:29:22.551Z,8
2018-04-24T01:39:07.578Z,11
2018-04-24T01:49:07.669Z,6
2018-04-24T01:59:09.684Z,6
2018-04-24T02:09:07.614Z,9
2018-04-24T02:19:07.946Z,10
2018-04-24T02:29:07.711Z,10
2018-04-24T02:39:07.692Z,11
2018-04-24T02:49:07.746Z,7
2018-04-24T02:59:07.729Z,7
2018-04-24T03:09:07.787Z,7
2018-04-24T03:19:07.721Z,5
2018-04-24T03:29:07.792Z,5
2018-04-24T03:39:07.808Z,3
2018-04-24T03:49:07.783Z,4
2018-04-24T03:59:07.730Z,4
2018-04-24T04:09:07.825Z,4
2018-04-24T04:19:07.804Z,5
2018-04-24T04:29:07.851Z,7
2018-04-24T04:39:07.759Z,5
2018-04-24T04:49:07.938Z,9
2018-04-24T04:59:07.856Z,5
2018-04-24T05:09:07.811Z,4
2018-04-24T05:19:07.802Z,6
2018-04-24T05:29:07.933Z,5
2018-04-24T05:39:07.916Z,5
2018-04-24T05:49:07.860Z,4
2018-04-24T05:59:07.936Z,7
2018-04-24T06:09:07.934Z,6
2018-04-24T06:19:07.969Z,6
2018-04-24T06:29:07.980Z,6
2018-04-24T06:39:08.050Z,8
2018-04-24T06:49:08.781Z,6
2018-04-24T06:59:07.978Z,8
2018-04-24T07:09:08.018Z,4
2018-04-24T07:19:08.020Z,8
2018-04-24T07:29:08.966Z,5
2018-04-24T07:39:09.516Z,6
2018-04-24T07:49:09.265Z,8
2018-04-24T07:59:08.139Z,6
2018-04-24T08:09:08.121Z,6
2018-04-24T08:19:08.129Z,8
2018-04-24T08:29:08.030Z,11
2018-04-24T08:39:09.124Z,9
2018-04-24T08:49:08.668Z,8
2018-04-24T08:59:08.244Z,9
2018-04-24T09:09:08.131Z,6
2018-04-24T09:19:08.476Z,7
2018-04-24T09:29:08.078Z,9
2018-04-24T09:39:08.232Z,11
2018-04-24T09:49:08.086Z,12
2018-04-24T09:59:08.100Z,12
2018-04-24T10:09:09.142Z,7
2018-04-24T10:19:08.161Z,10
2018-04-24T10:29:08.116Z,8
2018-04-24T10:39:08.261Z,9
2018-04-24T10:49:08.219Z,8
2018-04-24T10:59:08.251Z,10
2018-04-24T11:09:08.111Z,10
2018-04-24T11:19:08.196Z,10
2018-04-24T11:29:08.306Z,12
2018-04-24T11:39:08.751Z,12
2018-04-24T11:49:08.247Z,14
2018-04-24T11:59:08.264Z,12
2018-04-24T12:09:08.702Z,13
2018-04-24T12:19:08.721Z,14
2018-04-24T12:29:08.271Z,15
2018-04-24T12:39:08.250Z,13
2018-04-24T12:49:08.425Z,13
2018-04-24T12:59:08.542Z,16
2018-04-24T13:09:08.379Z,15
2018-04-24T13:19:08.434Z,14
2018-04-24T13:29:08.390Z,15
2018-04-24T13:39:08.318Z,17
2018-04-24T13:49:08.327Z,15
2018-04-24T13:59:08.328Z,15
2018-04-24T14:09:08.364Z,17
2018-04-24T14:19:08.772Z,17
2018-04-24T14:29:09.290Z,18
2018-04-24T14:39:08.784Z,16
2018-04-24T14:49:08.874Z,16
2018-04-24T14:59:08.367Z,17
2018-04-24T15:09:08.399Z,16
2018-04-24T15:19:08.446Z,17
2018-04-24T15:29:08.422Z,17
2018-04-24T15:39:08.561Z,16
2018-04-24T15:49:08.511Z,18
2018-04-24T15:59:08.658Z,17
2018-04-24T16:09:08.430Z,16
2018-04-24T16:19:08.456Z,14
2018-04-24T16:29:09.141Z,15
2018-04-24T16:39:08.503Z,15
2018-04-24T16:49:08.590Z,14
2018-04-24T16:59:08.579Z,15
2018-04-24T17:09:08.504Z,15
2018-04-24T17:19:08.700Z,16
2018-04-24T17:29:08.961Z,19
2018-04-24T17:39:09.216Z,16
2018-04-24T17:49:09.851Z,16
2018-04-24T17:59:08.748Z,20
2018-04-24T18:09:08.904Z,20
2018-04-24T18:19:08.658Z,20
2018-04-24T18:29:08.818Z,18
2018-04-24T18:39:08.707Z,20
2018-04-24T18:49:09.342Z,22
2018-04-24T18:59:08.791Z,18
2018-04-24T19:09:08.671Z,19
2018-04-24T19:20:08.832Z,19
2018-04-24T19:29:08.701Z,24
2018-04-24T19:39:08.648Z,22
2018-04-24T19:49:08.790Z,21
2018-04-24T19:59:08.687Z,21
2018-04-24T20:09:08.737Z,21
2018-04-24T20:19:08.849Z,22
2018-04-24T20:29:08.858Z,22
2018-04-24T20:39:09.014Z,21
2018-04-24T20:49:08.824Z,22
2018-04-24T20:59:09.650Z,24
2018-04-24T21:09:08.865Z,21
2018-04-24T21:19:08.878Z,26
2018-04-24T21:29:09.092Z,21
2018-04-24T21:39:08.742Z,20
2018-04-24T21:49:08.839Z,24
2018-04-24T21:59:09.060Z,20
2018-04-24T22:09:09.258Z,21
2018-04-24T22:19:09.437Z,19
2018-04-24T22:29:08.829Z,18
2018-04-24T22:39:08.874Z,20
2018-04-24T22:49:09.208Z,20
2018-04-24T22:59:08.878Z,20
2018-04-24T23:09:08.789Z,21
2018-04-24T23:19:08.814Z,20
2018-04-24T23:29:08.825Z,19
2018-04-24T23:39:08.796Z,22
2018-04-24T23:49:08.890Z,18
2018-04-24T23:59:08.875Z,20
